sensor_id;sensor_type;location;lat;lon;timestamp;P1;durP1;ratioP1;P2;durP2;ratioP2
21905;SDS011;11117;48.644;9.006;2023-05-21T00:01:59;25.83;;;18.70;;
21905;SDS011;11117;48.644;9.006;2023-05-21T00:04:25;28.07;;;17.77;;
21905;SDS011;11117;48.644;9.006;2023-05-21T00:06:50;28.23;;;18.57;;
21905;SDS011;11117;48.644;9.006;2023-05-21T00:09:16;27.90;;;19.70;;
21905;SDS011;11117;48.644;9.006;2023-05-21T00:11:41;25.90;;;18.73;;
21905;SDS011;11117;48.644;9.006;2023-05-21T00:14:07;25.00;;;18.47;;
21905;SDS011;11117;48.644;9.006;2023-05-21T00:16:33;30.27;;;18.73;;
21905;SDS011;11117;48.644;9.006;2023-05-21T00:18:58;27.53;;;19.43;;
21905;SDS011;11117;48.644;9.006;2023-05-21T00:21:24;26.77;;;19.50;;
21905;SDS011;11117;48.644;9.006;2023-05-21T00:23:49;27.87;;;19.10;;
21905;SDS011;11117;48.644;9.006;2023-05-21T00:26:15;27.10;;;19.80;;
21905;SDS011;11117;48.644;9.006;2023-05-21T00:28:40;31.60;;;20.70;;
21905;SDS011;11117;48.644;9.006;2023-05-21T00:31:07;28.13;;;20.50;;
21905;SDS011;11117;48.644;9.006;2023-05-21T00:33:32;28.57;;;20.37;;
21905;SDS011;11117;48.644;9.006;2023-05-21T00:35:58;25.73;;;19.43;;
21905;SDS011;11117;48.644;9.006;2023-05-21T00:38:23;27.43;;;20.73;;
21905;SDS011;11117;48.644;9.006;2023-05-21T00:40:49;26.10;;;19.40;;
21905;SDS011;11117;48.644;9.006;2023-05-21T00:43:15;31.47;;;20.87;;
21905;SDS011;11117;48.644;9.006;2023-05-21T00:45:41;28.60;;;21.37;;
21905;SDS011;11117;48.644;9.006;2023-05-21T00:48:06;30.97;;;20.13;;
21905;SDS011;11117;48.644;9.006;2023-05-21T00:50:32;26.33;;;20.07;;
21905;SDS011;11117;48.644;9.006;2023-05-21T00:52:58;28.40;;;20.57;;
21905;SDS011;11117;48.644;9.006;2023-05-21T00:55:23;30.83;;;20.87;;
21905;SDS011;11117;48.644;9.006;2023-05-21T00:57:49;27.70;;;21.43;;
21905;SDS011;11117;48.644;9.006;2023-05-21T01:00:15;30.37;;;22.17;;
21905;SDS011;11117;48.644;9.006;2023-05-21T01:02:41;32.13;;;22.20;;
21905;SDS011;11117;48.644;9.006;2023-05-21T01:05:07;30.27;;;21.50;;
21905;SDS011;11117;48.644;9.006;2023-05-21T01:07:33;32.07;;;21.97;;
21905;SDS011;11117;48.644;9.006;2023-05-21T01:10:01;30.60;;;21.40;;
21905;SDS011;11117;48.644;9.006;2023-05-21T01:12:28;32.27;;;22.23;;
21905;SDS011;11117;48.644;9.006;2023-05-21T01:14:56;33.70;;;21.83;;
21905;SDS011;11117;48.644;9.006;2023-05-21T01:17:24;29.93;;;21.47;;
21905;SDS011;11117;48.644;9.006;2023-05-21T01:19:51;30.80;;;22.17;;
21905;SDS011;11117;48.644;9.006;2023-05-21T01:22:16;35.50;;;22.37;;
21905;SDS011;11117;48.644;9.006;2023-05-21T01:24:45;29.57;;;22.10;;
21905;SDS011;11117;48.644;9.006;2023-05-21T01:27:14;30.70;;;22.27;;
21905;SDS011;11117;48.644;9.006;2023-05-21T01:29:39;30.50;;;22.20;;
21905;SDS011;11117;48.644;9.006;2023-05-21T01:34:38;31.67;;;22.30;;
21905;SDS011;11117;48.644;9.006;2023-05-21T01:37:20;33.23;;;23.40;;
21905;SDS011;11117;48.644;9.006;2023-05-21T01:39:51;30.33;;;21.73;;
21905;SDS011;11117;48.644;9.006;2023-05-21T01:42:32;33.77;;;22.60;;
21905;SDS011;11117;48.644;9.006;2023-05-21T01:45:00;34.27;;;23.90;;
21905;SDS011;11117;48.644;9.006;2023-05-21T01:47:27;37.87;;;22.37;;
21905;SDS011;11117;48.644;9.006;2023-05-21T01:49:54;31.63;;;22.33;;
21905;SDS011;11117;48.644;9.006;2023-05-21T01:52:20;34.40;;;23.83;;
21905;SDS011;11117;48.644;9.006;2023-05-21T01:54:46;38.70;;;23.17;;
21905;SDS011;11117;48.644;9.006;2023-05-21T01:57:11;33.50;;;23.70;;
21905;SDS011;11117;48.644;9.006;2023-05-21T01:59:37;33.87;;;23.23;;
21905;SDS011;11117;48.644;9.006;2023-05-21T02:02:02;33.07;;;23.23;;
21905;SDS011;11117;48.644;9.006;2023-05-21T02:04:28;32.13;;;23.50;;
21905;SDS011;11117;48.644;9.006;2023-05-21T02:06:54;34.73;;;24.57;;
21905;SDS011;11117;48.644;9.006;2023-05-21T02:09:19;35.53;;;24.13;;
21905;SDS011;11117;48.644;9.006;2023-05-21T02:11:45;37.47;;;24.50;;
21905;SDS011;11117;48.644;9.006;2023-05-21T02:14:10;34.90;;;24.20;;
21905;SDS011;11117;48.644;9.006;2023-05-21T02:16:36;35.40;;;25.37;;
21905;SDS011;11117;48.644;9.006;2023-05-21T02:19:01;38.50;;;25.60;;
21905;SDS011;11117;48.644;9.006;2023-05-21T02:21:27;36.63;;;25.07;;
21905;SDS011;11117;48.644;9.006;2023-05-21T02:23:52;39.73;;;25.63;;
21905;SDS011;11117;48.644;9.006;2023-05-21T02:26:18;37.63;;;25.47;;
21905;SDS011;11117;48.644;9.006;2023-05-21T02:28:43;36.57;;;26.10;;
21905;SDS011;11117;48.644;9.006;2023-05-21T02:31:10;38.80;;;26.63;;
21905;SDS011;11117;48.644;9.006;2023-05-21T02:33:38;39.20;;;26.13;;
21905;SDS011;11117;48.644;9.006;2023-05-21T02:36:04;37.23;;;25.67;;
21905;SDS011;11117;48.644;9.006;2023-05-21T02:38:30;39.73;;;26.40;;
21905;SDS011;11117;48.644;9.006;2023-05-21T02:40:56;38.83;;;25.70;;
21905;SDS011;11117;48.644;9.006;2023-05-21T02:43:21;37.70;;;26.90;;
21905;SDS011;11117;48.644;9.006;2023-05-21T02:45:47;34.63;;;25.27;;
21905;SDS011;11117;48.644;9.006;2023-05-21T02:48:12;36.17;;;25.70;;
21905;SDS011;11117;48.644;9.006;2023-05-21T02:50:38;39.13;;;25.20;;
21905;SDS011;11117;48.644;9.006;2023-05-21T02:53:03;37.77;;;25.63;;
21905;SDS011;11117;48.644;9.006;2023-05-21T02:55:29;39.50;;;24.93;;
21905;SDS011;11117;48.644;9.006;2023-05-21T02:57:54;36.93;;;25.50;;
21905;SDS011;11117;48.644;9.006;2023-05-21T03:00:20;38.00;;;26.30;;
21905;SDS011;11117;48.644;9.006;2023-05-21T03:02:45;37.40;;;26.37;;
21905;SDS011;11117;48.644;9.006;2023-05-21T03:05:11;36.67;;;25.63;;
21905;SDS011;11117;48.644;9.006;2023-05-21T03:07:36;39.50;;;26.53;;
21905;SDS011;11117;48.644;9.006;2023-05-21T03:10:02;38.97;;;26.00;;
21905;SDS011;11117;48.644;9.006;2023-05-21T03:12:27;34.23;;;24.40;;
21905;SDS011;11117;48.644;9.006;2023-05-21T03:14:53;36.27;;;25.23;;
21905;SDS011;11117;48.644;9.006;2023-05-21T03:17:18;39.90;;;26.53;;
21905;SDS011;11117;48.644;9.006;2023-05-21T03:19:44;38.60;;;26.17;;
21905;SDS011;11117;48.644;9.006;2023-05-21T03:22:10;39.93;;;25.70;;
21905;SDS011;11117;48.644;9.006;2023-05-21T03:24:38;37.27;;;26.00;;
21905;SDS011;11117;48.644;9.006;2023-05-21T03:27:04;36.27;;;26.57;;
21905;SDS011;11117;48.644;9.006;2023-05-21T03:29:30;37.63;;;25.83;;
21905;SDS011;11117;48.644;9.006;2023-05-21T03:31:55;37.00;;;26.40;;
21905;SDS011;11117;48.644;9.006;2023-05-21T03:34:21;44.60;;;28.40;;
21905;SDS011;11117;48.644;9.006;2023-05-21T03:36:47;41.90;;;26.10;;
21905;SDS011;11117;48.644;9.006;2023-05-21T03:39:12;41.73;;;28.30;;
21905;SDS011;11117;48.644;9.006;2023-05-21T03:41:38;43.87;;;28.47;;
21905;SDS011;11117;48.644;9.006;2023-05-21T03:44:03;45.53;;;29.63;;
21905;SDS011;11117;48.644;9.006;2023-05-21T03:46:29;45.77;;;28.93;;
21905;SDS011;11117;48.644;9.006;2023-05-21T03:48:55;44.60;;;28.20;;
21905;SDS011;11117;48.644;9.006;2023-05-21T03:51:20;44.93;;;30.13;;
21905;SDS011;11117;48.644;9.006;2023-05-21T03:53:46;47.00;;;29.60;;
21905;SDS011;11117;48.644;9.006;2023-05-21T03:56:13;42.27;;;28.17;;
21905;SDS011;11117;48.644;9.006;2023-05-21T03:58:39;44.43;;;29.17;;
21905;SDS011;11117;48.644;9.006;2023-05-21T04:01:04;41.20;;;27.63;;
21905;SDS011;11117;48.644;9.006;2023-05-21T04:03:30;45.93;;;27.87;;
21905;SDS011;11117;48.644;9.006;2023-05-21T04:05:56;43.10;;;28.10;;
21905;SDS011;11117;48.644;9.006;2023-05-21T04:08:21;46.47;;;29.23;;
21905;SDS011;11117;48.644;9.006;2023-05-21T04:10:47;42.80;;;28.70;;
21905;SDS011;11117;48.644;9.006;2023-05-21T04:13:12;42.87;;;28.07;;
21905;SDS011;11117;48.644;9.006;2023-05-21T04:15:38;39.30;;;26.87;;
21905;SDS011;11117;48.644;9.006;2023-05-21T04:18:03;43.20;;;28.67;;
21905;SDS011;11117;48.644;9.006;2023-05-21T04:20:29;45.07;;;28.00;;
21905;SDS011;11117;48.644;9.006;2023-05-21T04:22:54;40.97;;;27.83;;
21905;SDS011;11117;48.644;9.006;2023-05-21T04:25:20;46.23;;;29.80;;
21905;SDS011;11117;48.644;9.006;2023-05-21T04:27:45;49.03;;;29.33;;
21905;SDS011;11117;48.644;9.006;2023-05-21T04:30:11;44.10;;;29.60;;
21905;SDS011;11117;48.644;9.006;2023-05-21T04:32:36;47.17;;;29.77;;
21905;SDS011;11117;48.644;9.006;2023-05-21T04:35:02;45.63;;;30.10;;
21905;SDS011;11117;48.644;9.006;2023-05-21T04:37:28;46.43;;;29.20;;
21905;SDS011;11117;48.644;9.006;2023-05-21T04:39:53;49.77;;;28.73;;
21905;SDS011;11117;48.644;9.006;2023-05-21T04:42:19;42.90;;;28.50;;
21905;SDS011;11117;48.644;9.006;2023-05-21T04:44:44;50.07;;;28.77;;
21905;SDS011;11117;48.644;9.006;2023-05-21T04:47:10;44.40;;;29.37;;
21905;SDS011;11117;48.644;9.006;2023-05-21T04:49:35;43.57;;;28.63;;
21905;SDS011;11117;48.644;9.006;2023-05-21T04:52:01;45.47;;;28.53;;
21905;SDS011;11117;48.644;9.006;2023-05-21T04:54:27;41.10;;;26.90;;
21905;SDS011;11117;48.644;9.006;2023-05-21T04:56:53;39.57;;;26.90;;
21905;SDS011;11117;48.644;9.006;2023-05-21T04:59:18;39.93;;;27.83;;
21905;SDS011;11117;48.644;9.006;2023-05-21T05:01:44;37.60;;;26.07;;
21905;SDS011;11117;48.644;9.006;2023-05-21T05:04:10;42.13;;;26.67;;
21905;SDS011;11117;48.644;9.006;2023-05-21T05:06:35;40.60;;;26.87;;
21905;SDS011;11117;48.644;9.006;2023-05-21T05:09:01;40.03;;;28.30;;
21905;SDS011;11117;48.644;9.006;2023-05-21T05:11:26;40.70;;;27.13;;
21905;SDS011;11117;48.644;9.006;2023-05-21T05:13:52;39.50;;;26.43;;
21905;SDS011;11117;48.644;9.006;2023-05-21T05:16:17;37.50;;;25.83;;
21905;SDS011;11117;48.644;9.006;2023-05-21T05:18:43;37.27;;;25.27;;
21905;SDS011;11117;48.644;9.006;2023-05-21T05:21:09;36.70;;;24.00;;
21905;SDS011;11117;48.644;9.006;2023-05-21T05:23:35;33.47;;;24.80;;
21905;SDS011;11117;48.644;9.006;2023-05-21T05:26:00;37.67;;;23.63;;
21905;SDS011;11117;48.644;9.006;2023-05-21T05:28:26;35.23;;;24.43;;
21905;SDS011;11117;48.644;9.006;2023-05-21T05:30:51;38.00;;;23.87;;
21905;SDS011;11117;48.644;9.006;2023-05-21T05:33:17;32.73;;;23.33;;
21905;SDS011;11117;48.644;9.006;2023-05-21T05:35:43;32.50;;;24.23;;
21905;SDS011;11117;48.644;9.006;2023-05-21T05:38:09;29.87;;;22.37;;
21905;SDS011;11117;48.644;9.006;2023-05-21T05:40:34;36.57;;;24.27;;
21905;SDS011;11117;48.644;9.006;2023-05-21T05:43:00;32.73;;;23.27;;
21905;SDS011;11117;48.644;9.006;2023-05-21T05:45:25;40.20;;;28.23;;
21905;SDS011;11117;48.644;9.006;2023-05-21T05:47:51;41.87;;;25.43;;
21905;SDS011;11117;48.644;9.006;2023-05-21T05:50:16;31.93;;;22.97;;
21905;SDS011;11117;48.644;9.006;2023-05-21T05:52:42;33.93;;;23.20;;
21905;SDS011;11117;48.644;9.006;2023-05-21T05:55:08;32.37;;;23.20;;
21905;SDS011;11117;48.644;9.006;2023-05-21T05:57:33;32.60;;;23.53;;
21905;SDS011;11117;48.644;9.006;2023-05-21T05:59:59;32.40;;;23.97;;
21905;SDS011;11117;48.644;9.006;2023-05-21T06:02:25;33.97;;;23.07;;
21905;SDS011;11117;48.644;9.006;2023-05-21T06:04:50;30.10;;;22.67;;
21905;SDS011;11117;48.644;9.006;2023-05-21T06:07:16;30.77;;;22.50;;
21905;SDS011;11117;48.644;9.006;2023-05-21T06:09:41;30.93;;;22.27;;
21905;SDS011;11117;48.644;9.006;2023-05-21T06:12:07;30.60;;;22.87;;
21905;SDS011;11117;48.644;9.006;2023-05-21T06:14:32;29.20;;;21.77;;
21905;SDS011;11117;48.644;9.006;2023-05-21T06:16:58;33.93;;;21.53;;
21905;SDS011;11117;48.644;9.006;2023-05-21T06:19:23;27.27;;;21.52;;
21905;SDS011;11117;48.644;9.006;2023-05-21T06:21:49;27.33;;;21.00;;
21905;SDS011;11117;48.644;9.006;2023-05-21T06:24:14;27.50;;;21.00;;
21905;SDS011;11117;48.644;9.006;2023-05-21T06:26:40;31.08;;;21.77;;
21905;SDS011;11117;48.644;9.006;2023-05-21T06:29:05;27.70;;;21.55;;
21905;SDS011;11117;48.644;9.006;2023-05-21T06:31:31;27.85;;;21.02;;
21905;SDS011;11117;48.644;9.006;2023-05-21T06:33:57;23.58;;;19.52;;
21905;SDS011;11117;48.644;9.006;2023-05-21T06:36:23;26.98;;;21.00;;
21905;SDS011;11117;48.644;9.006;2023-05-21T06:38:49;26.38;;;20.33;;
21905;SDS011;11117;48.644;9.006;2023-05-21T06:41:14;26.55;;;19.88;;
21905;SDS011;11117;48.644;9.006;2023-05-21T06:43:40;28.90;;;20.02;;
21905;SDS011;11117;48.644;9.006;2023-05-21T06:46:05;26.88;;;20.25;;
21905;SDS011;11117;48.644;9.006;2023-05-21T06:48:31;27.25;;;18.48;;
21905;SDS011;11117;48.644;9.006;2023-05-21T06:50:56;22.95;;;18.00;;
21905;SDS011;11117;48.644;9.006;2023-05-21T06:53:22;25.15;;;17.98;;
21905;SDS011;11117;48.644;9.006;2023-05-21T06:55:47;25.20;;;18.45;;
21905;SDS011;11117;48.644;9.006;2023-05-21T06:58:13;26.08;;;19.60;;
21905;SDS011;11117;48.644;9.006;2023-05-21T07:00:39;23.05;;;16.63;;
21905;SDS011;11117;48.644;9.006;2023-05-21T07:03:04;20.80;;;16.73;;
21905;SDS011;11117;48.644;9.006;2023-05-21T07:05:30;21.10;;;15.63;;
21905;SDS011;11117;48.644;9.006;2023-05-21T07:07:55;23.17;;;16.23;;
21905;SDS011;11117;48.644;9.006;2023-05-21T07:10:21;20.58;;;15.77;;
21905;SDS011;11117;48.644;9.006;2023-05-21T07:12:46;19.60;;;15.60;;
21905;SDS011;11117;48.644;9.006;2023-05-21T07:15:12;19.52;;;15.70;;
21905;SDS011;11117;48.644;9.006;2023-05-21T07:17:37;19.38;;;15.88;;
21905;SDS011;11117;48.644;9.006;2023-05-21T07:20:03;20.55;;;15.20;;
21905;SDS011;11117;48.644;9.006;2023-05-21T07:22:29;19.02;;;15.48;;
21905;SDS011;11117;48.644;9.006;2023-05-21T07:24:54;21.88;;;15.73;;
21905;SDS011;11117;48.644;9.006;2023-05-21T07:27:20;22.88;;;15.20;;
21905;SDS011;11117;48.644;9.006;2023-05-21T07:29:45;19.80;;;15.07;;
21905;SDS011;11117;48.644;9.006;2023-05-21T07:32:11;20.40;;;13.98;;
21905;SDS011;11117;48.644;9.006;2023-05-21T07:34:36;17.17;;;14.40;;
21905;SDS011;11117;48.644;9.006;2023-05-21T07:37:02;17.98;;;14.23;;
21905;SDS011;11117;48.644;9.006;2023-05-21T07:39:28;17.23;;;13.75;;
21905;SDS011;11117;48.644;9.006;2023-05-21T07:41:53;18.70;;;14.52;;
21905;SDS011;11117;48.644;9.006;2023-05-21T07:44:19;17.77;;;13.82;;
21905;SDS011;11117;48.644;9.006;2023-05-21T07:46:44;16.63;;;12.75;;
21905;SDS011;11117;48.644;9.006;2023-05-21T07:49:10;15.73;;;12.77;;
21905;SDS011;11117;48.644;9.006;2023-05-21T07:51:35;17.33;;;13.30;;
21905;SDS011;11117;48.644;9.006;2023-05-21T07:54:01;18.40;;;13.68;;
21905;SDS011;11117;48.644;9.006;2023-05-21T07:56:26;16.42;;;12.88;;
21905;SDS011;11117;48.644;9.006;2023-05-21T07:58:52;14.05;;;12.45;;
21905;SDS011;11117;48.644;9.006;2023-05-21T08:01:17;15.45;;;12.23;;
21905;SDS011;11117;48.644;9.006;2023-05-21T08:03:43;14.23;;;11.80;;
21905;SDS011;11117;48.644;9.006;2023-05-21T08:06:09;15.60;;;12.38;;
21905;SDS011;11117;48.644;9.006;2023-05-21T08:08:35;16.60;;;12.60;;
21905;SDS011;11117;48.644;9.006;2023-05-21T08:11:00;23.10;;;13.25;;
21905;SDS011;11117;48.644;9.006;2023-05-21T08:13:26;14.88;;;11.40;;
21905;SDS011;11117;48.644;9.006;2023-05-21T08:15:51;14.32;;;12.50;;
21905;SDS011;11117;48.644;9.006;2023-05-21T08:18:17;14.77;;;11.77;;
21905;SDS011;11117;48.644;9.006;2023-05-21T08:20:43;21.65;;;12.35;;
21905;SDS011;11117;48.644;9.006;2023-05-21T08:23:08;16.08;;;12.32;;
21905;SDS011;11117;48.644;9.006;2023-05-21T08:25:34;15.65;;;11.90;;
21905;SDS011;11117;48.644;9.006;2023-05-21T08:27:59;19.52;;;12.50;;
21905;SDS011;11117;48.644;9.006;2023-05-21T08:30:25;12.93;;;10.98;;
21905;SDS011;11117;48.644;9.006;2023-05-21T08:32:50;16.05;;;11.55;;
21905;SDS011;11117;48.644;9.006;2023-05-21T08:35:16;11.63;;;10.43;;
21905;SDS011;11117;48.644;9.006;2023-05-21T08:37:41;13.30;;;11.02;;
21905;SDS011;11117;48.644;9.006;2023-05-21T08:40:07;15.35;;;11.40;;
21905;SDS011;11117;48.644;9.006;2023-05-21T08:42:46;14.13;;;11.32;;
21905;SDS011;11117;48.644;9.006;2023-05-21T08:45:13;15.32;;;11.40;;
21905;SDS011;11117;48.644;9.006;2023-05-21T08:47:43;15.27;;;11.20;;
21905;SDS011;11117;48.644;9.006;2023-05-21T08:50:10;16.35;;;11.63;;
21905;SDS011;11117;48.644;9.006;2023-05-21T08:52:40;12.63;;;11.23;;
21905;SDS011;11117;48.644;9.006;2023-05-21T08:55:06;12.57;;;11.13;;
21905;SDS011;11117;48.644;9.006;2023-05-21T08:57:32;13.55;;;11.55;;
21905;SDS011;11117;48.644;9.006;2023-05-21T08:59:58;13.32;;;11.57;;
21905;SDS011;11117;48.644;9.006;2023-05-21T09:02:24;13.70;;;11.70;;
21905;SDS011;11117;48.644;9.006;2023-05-21T09:04:50;13.15;;;11.32;;
21905;SDS011;11117;48.644;9.006;2023-05-21T09:07:17;16.95;;;12.18;;
21905;SDS011;11117;48.644;9.006;2023-05-21T09:09:46;15.05;;;10.95;;
21905;SDS011;11117;48.644;9.006;2023-05-21T09:12:18;15.32;;;11.50;;
21905;SDS011;11117;48.644;9.006;2023-05-21T09:14:44;17.30;;;11.40;;
21905;SDS011;11117;48.644;9.006;2023-05-21T09:17:14;13.52;;;10.95;;
21905;SDS011;11117;48.644;9.006;2023-05-21T09:22:30;13.65;;;11.82;;
21905;SDS011;11117;48.644;9.006;2023-05-21T09:24:56;17.40;;;11.50;;
21905;SDS011;11117;48.644;9.006;2023-05-21T09:27:21;14.82;;;11.18;;
21905;SDS011;11117;48.644;9.006;2023-05-21T09:29:47;15.90;;;11.48;;
21905;SDS011;11117;48.644;9.006;2023-05-21T09:32:12;14.20;;;11.43;;
21905;SDS011;11117;48.644;9.006;2023-05-21T09:34:38;13.88;;;11.48;;
21905;SDS011;11117;48.644;9.006;2023-05-21T09:37:05;15.40;;;11.20;;
21905;SDS011;11117;48.644;9.006;2023-05-21T09:39:30;18.85;;;11.10;;
21905;SDS011;11117;48.644;9.006;2023-05-21T09:41:56;12.38;;;11.00;;
21905;SDS011;11117;48.644;9.006;2023-05-21T09:44:22;12.35;;;11.05;;
21905;SDS011;11117;48.644;9.006;2023-05-21T09:46:48;13.48;;;10.48;;
21905;SDS011;11117;48.644;9.006;2023-05-21T09:49:22;13.15;;;11.75;;
21905;SDS011;11117;48.644;9.006;2023-05-21T09:51:49;17.42;;;11.27;;
21905;SDS011;11117;48.644;9.006;2023-05-21T09:54:14;14.48;;;11.60;;
21905;SDS011;11117;48.644;9.006;2023-05-21T09:56:40;15.77;;;10.35;;
21905;SDS011;11117;48.644;9.006;2023-05-21T09:59:05;13.45;;;11.23;;
21905;SDS011;11117;48.644;9.006;2023-05-21T10:01:31;17.80;;;10.65;;
21905;SDS011;11117;48.644;9.006;2023-05-21T10:03:58;15.00;;;11.48;;
21905;SDS011;11117;48.644;9.006;2023-05-21T10:06:25;12.63;;;11.32;;
21905;SDS011;11117;48.644;9.006;2023-05-21T10:08:54;15.95;;;10.48;;
21905;SDS011;11117;48.644;9.006;2023-05-21T10:11:22;12.77;;;11.23;;
21905;SDS011;11117;48.644;9.006;2023-05-21T10:13:52;13.50;;;10.75;;
21905;SDS011;11117;48.644;9.006;2023-05-21T10:16:28;16.25;;;10.43;;
21905;SDS011;11117;48.644;9.006;2023-05-21T10:18:57;16.48;;;10.43;;
21905;SDS011;11117;48.644;9.006;2023-05-21T10:21:23;14.23;;;11.10;;
21905;SDS011;11117;48.644;9.006;2023-05-21T10:23:49;11.98;;;10.27;;
21905;SDS011;11117;48.644;9.006;2023-05-21T10:26:16;13.38;;;10.20;;
21905;SDS011;11117;48.644;9.006;2023-05-21T10:28:42;13.82;;;10.25;;
21905;SDS011;11117;48.644;9.006;2023-05-21T10:31:10;11.63;;;10.20;;
21905;SDS011;11117;48.644;9.006;2023-05-21T10:33:36;12.10;;;9.35;;
21905;SDS011;11117;48.644;9.006;2023-05-21T10:36:02;10.15;;;9.15;;
21905;SDS011;11117;48.644;9.006;2023-05-21T10:38:29;12.30;;;10.00;;
21905;SDS011;11117;48.644;9.006;2023-05-21T10:40:57;10.88;;;9.77;;
21905;SDS011;11117;48.644;9.006;2023-05-21T10:43:43;13.13;;;9.98;;
21905;SDS011;11117;48.644;9.006;2023-05-21T10:52:06;13.52;;;9.85;;
21905;SDS011;11117;48.644;9.006;2023-05-21T11:00:22;15.63;;;12.00;;
21905;SDS011;11117;48.644;9.006;2023-05-21T11:02:49;12.32;;;10.30;;
21905;SDS011;11117;48.644;9.006;2023-05-21T11:05:15;13.57;;;10.02;;
21905;SDS011;11117;48.644;9.006;2023-05-21T11:07:50;13.48;;;9.57;;
21905;SDS011;11117;48.644;9.006;2023-05-21T11:10:29;11.23;;;9.32;;
21905;SDS011;11117;48.644;9.006;2023-05-21T11:13:04;10.70;;;9.27;;
21905;SDS011;11117;48.644;9.006;2023-05-21T11:18:21;15.48;;;9.27;;
21905;SDS011;11117;48.644;9.006;2023-05-21T11:21:07;11.00;;;8.35;;
21905;SDS011;11117;48.644;9.006;2023-05-21T11:23:47;10.32;;;7.68;;
21905;SDS011;11117;48.644;9.006;2023-05-21T11:26:16;12.07;;;7.93;;
21905;SDS011;11117;48.644;9.006;2023-05-21T11:28:42;9.27;;;7.93;;
21905;SDS011;11117;48.644;9.006;2023-05-21T11:31:21;12.63;;;9.07;;
21905;SDS011;11117;48.644;9.006;2023-05-21T11:33:47;12.65;;;9.50;;
21905;SDS011;11117;48.644;9.006;2023-05-21T11:36:13;13.63;;;10.05;;
21905;SDS011;11117;48.644;9.006;2023-05-21T11:38:39;12.98;;;10.23;;
21905;SDS011;11117;48.644;9.006;2023-05-21T11:41:04;12.15;;;9.18;;
21905;SDS011;11117;48.644;9.006;2023-05-21T11:43:30;12.45;;;10.07;;
21905;SDS011;11117;48.644;9.006;2023-05-21T11:45:55;10.52;;;9.43;;
21905;SDS011;11117;48.644;9.006;2023-05-21T11:48:24;11.15;;;9.13;;
21905;SDS011;11117;48.644;9.006;2023-05-21T11:50:50;13.60;;;9.73;;
21905;SDS011;11117;48.644;9.006;2023-05-21T11:53:16;16.02;;;9.35;;
21905;SDS011;11117;48.644;9.006;2023-05-21T11:55:41;11.50;;;9.27;;
21905;SDS011;11117;48.644;9.006;2023-05-21T11:58:08;13.43;;;9.55;;
21905;SDS011;11117;48.644;9.006;2023-05-21T12:00:39;10.50;;;9.10;;
21905;SDS011;11117;48.644;9.006;2023-05-21T12:03:05;13.10;;;8.88;;
21905;SDS011;11117;48.644;9.006;2023-05-21T12:05:30;9.65;;;8.38;;
21905;SDS011;11117;48.644;9.006;2023-05-21T12:08:07;9.23;;;8.18;;
21905;SDS011;11117;48.644;9.006;2023-05-21T12:10:33;9.05;;;7.85;;
21905;SDS011;11117;48.644;9.006;2023-05-21T12:12:58;11.05;;;7.75;;
21905;SDS011;11117;48.644;9.006;2023-05-21T12:15:24;7.60;;;6.72;;
21905;SDS011;11117;48.644;9.006;2023-05-21T12:17:50;11.93;;;7.80;;
21905;SDS011;11117;48.644;9.006;2023-05-21T12:20:16;8.38;;;7.47;;
21905;SDS011;11117;48.644;9.006;2023-05-21T12:22:43;10.50;;;7.38;;
21905;SDS011;11117;48.644;9.006;2023-05-21T12:25:08;8.23;;;7.38;;
21905;SDS011;11117;48.644;9.006;2023-05-21T12:27:34;10.10;;;7.45;;
21905;SDS011;11117;48.644;9.006;2023-05-21T12:30:00;7.38;;;6.68;;
21905;SDS011;11117;48.644;9.006;2023-05-21T12:32:26;8.35;;;7.25;;
21905;SDS011;11117;48.644;9.006;2023-05-21T12:34:52;11.02;;;7.85;;
21905;SDS011;11117;48.644;9.006;2023-05-21T12:37:19;9.60;;;7.88;;
21905;SDS011;11117;48.644;9.006;2023-05-21T12:39:51;9.48;;;8.23;;
21905;SDS011;11117;48.644;9.006;2023-05-21T12:42:24;10.57;;;7.97;;
21905;SDS011;11117;48.644;9.006;2023-05-21T12:44:54;9.88;;;7.68;;
21905;SDS011;11117;48.644;9.006;2023-05-21T12:47:23;8.52;;;7.60;;
21905;SDS011;11117;48.644;9.006;2023-05-21T12:49:50;9.13;;;7.55;;
21905;SDS011;11117;48.644;9.006;2023-05-21T12:52:18;9.02;;;8.02;;
21905;SDS011;11117;48.644;9.006;2023-05-21T12:54:44;8.77;;;7.43;;
21905;SDS011;11117;48.644;9.006;2023-05-21T12:57:13;8.13;;;7.32;;
21905;SDS011;11117;48.644;9.006;2023-05-21T12:59:44;8.52;;;7.10;;
21905;SDS011;11117;48.644;9.006;2023-05-21T13:02:15;10.90;;;7.03;;
21905;SDS011;11117;48.644;9.006;2023-05-21T13:04:42;9.85;;;7.03;;
21905;SDS011;11117;48.644;9.006;2023-05-21T13:07:08;8.68;;;7.78;;
21905;SDS011;11117;48.644;9.006;2023-05-21T13:09:34;9.95;;;7.60;;
21905;SDS011;11117;48.644;9.006;2023-05-21T13:11:59;9.07;;;7.90;;
21905;SDS011;11117;48.644;9.006;2023-05-21T13:14:25;10.32;;;7.72;;
21905;SDS011;11117;48.644;9.006;2023-05-21T13:16:50;8.77;;;7.78;;
21905;SDS011;11117;48.644;9.006;2023-05-21T13:19:16;10.55;;;7.90;;
21905;SDS011;11117;48.644;9.006;2023-05-21T13:21:41;8.60;;;7.70;;
21905;SDS011;11117;48.644;9.006;2023-05-21T13:24:07;11.00;;;8.20;;
21905;SDS011;11117;48.644;9.006;2023-05-21T13:26:32;10.65;;;7.82;;
21905;SDS011;11117;48.644;9.006;2023-05-21T13:28:58;8.93;;;7.40;;
21905;SDS011;11117;48.644;9.006;2023-05-21T13:31:24;11.35;;;7.72;;
21905;SDS011;11117;48.644;9.006;2023-05-21T13:33:49;10.38;;;7.25;;
21905;SDS011;11117;48.644;9.006;2023-05-21T13:36:15;14.60;;;7.72;;
21905;SDS011;11117;48.644;9.006;2023-05-21T13:38:40;9.00;;;7.72;;
21905;SDS011;11117;48.644;9.006;2023-05-21T13:41:07;10.68;;;7.65;;
21905;SDS011;11117;48.644;9.006;2023-05-21T13:43:33;11.75;;;7.53;;
21905;SDS011;11117;48.644;9.006;2023-05-21T13:45:58;9.18;;;7.72;;
21905;SDS011;11117;48.644;9.006;2023-05-21T13:48:24;8.10;;;7.30;;
21905;SDS011;11117;48.644;9.006;2023-05-21T13:50:49;8.63;;;7.43;;
21905;SDS011;11117;48.644;9.006;2023-05-21T13:53:15;10.15;;;7.40;;
21905;SDS011;11117;48.644;9.006;2023-05-21T13:55:40;8.95;;;7.45;;
21905;SDS011;11117;48.644;9.006;2023-05-21T13:58:06;10.30;;;8.07;;
21905;SDS011;11117;48.644;9.006;2023-05-21T14:00:32;10.38;;;8.25;;
21905;SDS011;11117;48.644;9.006;2023-05-21T14:02:57;11.70;;;7.88;;
21905;SDS011;11117;48.644;9.006;2023-05-21T14:05:23;10.05;;;7.78;;
21905;SDS011;11117;48.644;9.006;2023-05-21T14:07:48;7.97;;;7.18;;
21905;SDS011;11117;48.644;9.006;2023-05-21T14:10:14;8.95;;;7.20;;
21905;SDS011;11117;48.644;9.006;2023-05-21T14:12:39;9.32;;;7.10;;
21905;SDS011;11117;48.644;9.006;2023-05-21T14:15:05;12.50;;;7.03;;
21905;SDS011;11117;48.644;9.006;2023-05-21T14:17:31;7.85;;;6.90;;
21905;SDS011;11117;48.644;9.006;2023-05-21T14:19:56;9.32;;;6.80;;
21905;SDS011;11117;48.644;9.006;2023-05-21T14:22:22;8.07;;;7.15;;
21905;SDS011;11117;48.644;9.006;2023-05-21T14:24:47;9.95;;;6.75;;
21905;SDS011;11117;48.644;9.006;2023-05-21T14:27:14;9.63;;;6.95;;
21905;SDS011;11117;48.644;9.006;2023-05-21T14:29:39;11.05;;;6.65;;
21905;SDS011;11117;48.644;9.006;2023-05-21T14:32:05;8.00;;;6.78;;
21905;SDS011;11117;48.644;9.006;2023-05-21T14:34:31;8.15;;;6.72;;
21905;SDS011;11117;48.644;9.006;2023-05-21T14:36:57;10.07;;;6.80;;
21905;SDS011;11117;48.644;9.006;2023-05-21T14:39:22;9.50;;;6.03;;
21905;SDS011;11117;48.644;9.006;2023-05-21T14:41:48;10.10;;;6.55;;